Time;durP1;ratioP1;P1;durP2;ratioP2;P2;SDS_P1;SDS_P2;PMS_P1;PMS_P2;Temp;Humidity;BMP_temperature;BMP_pressure;BME280_temperature;BME280_humidity;BME280_pressure;Samples;Min_cycle;Max_cycle;Signal;HPM_P1;HPM_P2
2022/09/25 00:00:17;0.00;0.00;0.62;0.00;0.00;0.62;2.70;2.40;;;26.90;28.00;;;;;;2236352;62;20361;-65
2022/09/25 00:03:04;0.00;0.00;0.62;0.00;0.00;0.62;2.53;2.17;;;26.90;28.00;;;;;;2233902;62;20416;-66
2022/09/25 00:05:49;0.00;0.00;0.62;0.00;0.00;0.62;2.60;2.20;;;26.90;28.00;;;;;;2234339;62;20454;-65
2022/09/25 00:08:35;0.00;0.00;0.62;0.00;0.00;0.62;2.70;2.10;;;26.90;28.10;;;;;;2233858;62;20395;-65
2022/09/25 00:11:22;0.00;0.00;0.62;0.00;0.00;0.62;4.20;3.17;;;26.90;28.20;;;;;;2234375;62;20644;-65
2022/09/25 00:14:08;0.00;0.00;0.62;0.00;0.00;0.62;2.93;2.47;;;26.90;28.20;;;;;;2233965;62;20636;-65
2022/09/25 00:16:53;0.00;0.00;0.62;0.00;0.00;0.62;2.60;1.77;;;26.80;28.60;;;;;;2233707;62;20356;-66
2022/09/25 00:19:51;0.00;0.00;0.62;0.00;0.00;0.62;3.40;3.10;;;26.80;28.10;;;;;;2234396;62;20796;-65
2022/09/25 00:22:36;0.00;0.00;0.62;0.00;0.00;0.62;4.17;2.43;;;26.80;28.20;;;;;;2233744;62;20478;-65
2022/09/25 00:25:21;0.00;0.00;0.62;0.00;0.00;0.62;4.00;2.63;;;26.80;28.20;;;;;;2234052;62;20618;-65
2022/09/25 00:28:06;0.00;0.00;0.62;0.00;0.00;0.62;4.37;3.20;;;26.80;28.80;;;;;;2233853;62;20380;-65
2022/09/25 00:30:50;0.00;0.00;0.62;0.00;0.00;0.62;4.03;2.37;;;26.80;28.20;;;;;;2233782;62;20489;-64
2022/09/25 00:33:35;0.00;0.00;0.62;0.00;0.00;0.62;3.00;2.43;;;26.80;28.20;;;;;;2232962;62;20381;-65
2022/09/25 00:36:21;0.00;0.00;0.62;0.00;0.00;0.62;2.63;2.40;;;26.80;28.80;;;;;;2229636;62;20373;-66
2022/09/25 00:39:06;0.00;0.00;0.62;0.00;0.00;0.62;3.87;3.10;;;26.70;28.20;;;;;;2229927;62;20454;-65
2022/09/25 00:41:51;0.00;0.00;0.62;0.00;0.00;0.62;3.30;2.87;;;26.70;28.20;;;;;;2230542;62;20440;-65
2022/09/25 00:44:58;0.00;0.00;0.62;0.00;0.00;0.62;2.50;2.20;;;26.70;28.80;;;;;;2229723;62;20381;-66
2022/09/25 00:47:51;0.00;0.00;0.62;0.00;0.00;0.62;3.53;2.90;;;26.70;28.30;;;;;;2230262;62;20418;-65
2022/09/25 00:50:45;0.00;0.00;0.62;0.00;0.00;0.62;3.97;3.40;;;26.70;28.30;;;;;;2229795;62;20381;-65
2022/09/25 00:53:36;0.00;0.00;0.62;0.00;0.00;0.62;3.47;2.47;;;26.70;28.50;;;;;;2230044;62;20541;-65
2022/09/25 00:56:21;0.00;0.00;0.62;0.00;0.00;0.62;2.90;2.50;;;26.70;28.40;;;;;;2230361;62;20414;-65
2022/09/25 00:59:09;0.00;0.00;0.62;0.00;0.00;0.62;3.20;2.50;;;26.60;28.30;;;;;;2229673;62;20465;-65
2022/09/25 01:01:54;0.00;0.00;0.62;0.00;0.00;0.62;3.30;2.60;;;26.60;28.30;;;;;;2230054;62;20731;-65
2022/09/25 01:04:44;0.00;0.00;0.62;0.00;0.00;0.62;4.23;3.00;;;26.60;28.30;;;;;;2232267;62;20404;-68
2022/09/25 01:07:32;0.00;0.00;0.62;0.00;0.00;0.62;3.90;2.60;;;26.60;28.40;;;;;;2229713;62;20409;-65
2022/09/25 01:10:19;0.00;0.00;0.62;0.00;0.00;0.62;4.43;3.03;;;26.60;28.40;;;;;;2230419;62;20584;-65
2022/09/25 01:13:05;0.00;0.00;0.62;0.00;0.00;0.62;3.07;2.77;;;26.50;28.40;;;;;;2229777;62;20580;-64
2022/09/25 01:15:58;0.00;0.00;0.62;0.00;0.00;0.62;3.77;2.73;;;26.50;28.40;;;;;;2229883;62;20386;-64
2022/09/25 01:18:56;0.00;0.00;0.62;0.00;0.00;0.62;4.03;3.17;;;26.50;28.40;;;;;;2230042;62;20396;-66
2022/09/25 01:21:48;0.00;0.00;0.62;0.00;0.00;0.62;6.33;3.63;;;26.50;28.50;;;;;;2229787;62;20361;-65
2022/09/25 01:24:48;0.00;0.00;0.62;0.00;0.00;0.62;5.63;4.40;;;26.50;28.60;;;;;;2230040;62;20364;-66
2022/09/25 01:27:45;0.00;0.00;0.62;0.00;0.00;0.62;4.13;3.50;;;26.50;28.60;;;;;;2229663;62;20394;-65
2022/09/25 01:30:39;0.00;0.00;0.62;0.00;0.00;0.62;4.47;3.10;;;26.50;28.60;;;;;;2229848;62;20623;-65
2022/09/25 01:33:30;0.00;0.00;0.62;0.00;0.00;0.62;4.60;3.33;;;26.50;29.20;;;;;;2231326;62;20493;-65
2022/09/25 01:36:22;0.00;0.00;0.62;0.00;0.00;0.62;3.70;3.10;;;26.40;28.50;;;;;;2233740;62;20476;-65
2022/09/25 01:39:13;0.00;0.00;0.62;0.00;0.00;0.62;3.97;3.17;;;26.40;28.60;;;;;;2233696;62;20381;-65
2022/09/25 01:42:04;0.00;0.00;0.62;0.00;0.00;0.62;3.70;2.90;;;26.40;28.60;;;;;;2234045;62;20361;-65
2022/09/25 01:44:56;0.00;0.00;0.62;0.00;0.00;0.62;4.33;3.53;;;26.40;28.60;;;;;;2233737;62;20388;-65
2022/09/25 01:47:46;0.00;0.00;0.62;0.00;0.00;0.62;4.93;3.73;;;26.40;28.70;;;;;;2234040;62;20600;-65
2022/09/25 01:50:39;0.00;0.00;0.62;0.00;0.00;0.62;3.70;3.13;;;26.40;28.60;;;;;;2233598;62;20726;-65
2022/09/25 01:53:31;0.00;0.00;0.62;0.00;0.00;0.62;3.40;2.30;;;26.40;28.60;;;;;;2235941;62;20396;-65
2022/09/25 01:56:31;0.00;0.00;0.62;0.00;0.00;0.62;3.40;3.10;;;26.40;28.60;;;;;;2234156;62;20583;-65
2022/09/25 01:59:21;0.00;0.00;0.62;0.00;0.00;0.62;3.40;2.80;;;26.30;28.60;;;;;;2233508;62;20489;-65
2022/09/25 02:02:12;0.00;0.00;0.62;0.00;0.00;0.62;4.23;3.43;;;26.30;28.60;;;;;;2234175;62;20376;-65
2022/09/25 02:05:05;0.00;0.00;0.62;0.00;0.00;0.62;3.00;2.47;;;26.30;28.60;;;;;;2233463;62;20401;-65
2022/09/25 02:07:57;0.00;0.00;0.62;0.00;0.00;0.62;4.97;3.80;;;26.30;28.60;;;;;;2233641;62;20396;-65
2022/09/25 02:10:47;0.00;0.00;0.62;0.00;0.00;0.62;3.40;3.10;;;26.30;28.70;;;;;;2234077;62;20361;-65
2022/09/25 02:13:37;0.00;0.00;0.62;0.00;0.00;0.62;3.57;3.17;;;26.30;28.70;;;;;;2233589;62;20594;-65
2022/09/25 02:16:28;0.00;0.00;0.62;0.00;0.00;0.62;3.53;2.83;;;26.30;28.70;;;;;;2233538;62;20361;-65
2022/09/25 02:22:25;0.00;0.00;0.62;0.00;0.00;0.62;4.60;3.40;;;26.30;28.70;;;;;;2233757;62;20594;-65
2022/09/25 02:25:17;0.00;0.00;0.62;0.00;0.00;0.62;3.53;2.93;;;26.30;28.70;;;;;;2234038;62;20460;-65
2022/09/25 02:28:02;0.00;0.00;0.62;0.00;0.00;0.62;2.93;2.73;;;26.30;28.70;;;;;;2233423;62;20452;-65
2022/09/25 02:30:50;0.00;0.00;0.62;0.00;0.00;0.62;3.27;2.63;;;26.20;28.70;;;;;;2233872;62;20368;-65
2022/09/25 02:33:35;0.00;0.00;0.62;0.00;0.00;0.62;3.40;2.93;;;26.20;29.20;;;;;;2232613;62;20373;-64
2022/09/25 02:36:22;0.00;0.00;0.62;0.00;0.00;0.62;4.30;3.63;;;26.20;28.70;;;;;;2229311;62;20429;-65
2022/09/25 02:39:12;0.00;0.00;0.62;0.00;0.00;0.62;3.50;3.20;;;26.20;28.80;;;;;;2230002;62;20474;-65
2022/09/25 02:42:15;0.00;0.00;0.62;0.00;0.00;0.62;3.60;2.90;;;26.20;28.80;;;;;;2229594;62;20366;-66
2022/09/25 02:45:14;0.00;0.00;0.62;0.00;0.00;0.62;3.70;2.80;;;26.20;28.80;;;;;;2229609;62;20405;-65
2022/09/25 02:48:09;0.00;0.00;0.62;0.00;0.00;0.62;6.00;3.23;;;26.20;28.80;;;;;;2230010;62;20633;-65
2022/09/25 02:51:07;0.00;0.00;0.62;0.00;0.00;0.62;3.57;2.83;;;26.20;28.80;;;;;;2229500;62;20386;-66
2022/09/25 02:54:01;0.00;0.00;0.62;0.00;0.00;0.62;4.50;2.77;;;26.20;28.80;;;;;;2229908;62;20370;-66
2022/09/25 02:56:54;0.00;0.00;0.62;0.00;0.00;0.62;3.63;3.00;;;26.20;28.80;;;;;;2229372;62;20402;-65
2022/09/25 02:59:45;0.00;0.00;0.62;0.00;0.00;0.62;3.00;2.70;;;26.20;28.80;;;;;;2229521;62;20393;-66
2022/09/25 03:02:32;0.00;0.00;0.62;0.00;0.00;0.62;4.77;3.40;;;26.20;28.80;;;;;;2230122;62;20410;-66
2022/09/25 03:05:18;0.00;0.00;0.62;0.00;0.00;0.62;4.20;3.13;;;26.20;28.90;;;;;;2229424;62;20402;-66
2022/09/25 03:11:11;0.00;0.00;0.62;0.00;0.00;0.62;4.57;2.90;;;26.20;28.90;;;;;;2229386;62;20365;-65
2022/09/25 03:13:59;0.00;0.00;0.62;0.00;0.00;0.62;4.27;2.70;;;26.20;28.90;;;;;;2229595;62;20393;-66
2022/09/25 03:16:48;0.00;0.00;0.62;0.00;0.00;0.62;4.30;2.83;;;26.20;28.90;;;;;;2229766;62;20697;-66
2022/09/25 03:19:34;0.00;0.00;0.62;0.00;0.00;0.62;2.97;2.57;;;26.20;28.90;;;;;;2229336;62;20772;-65
2022/09/25 03:22:19;0.00;0.00;0.62;0.00;0.00;0.62;3.40;2.50;;;26.20;28.90;;;;;;2229522;62;20398;-66
2022/09/25 03:25:07;0.00;0.00;0.62;0.00;0.00;0.62;2.50;2.03;;;26.20;28.90;;;;;;2229784;62;20360;-66
2022/09/25 03:27:51;0.00;0.00;0.62;0.00;0.00;0.62;2.50;2.30;;;26.20;28.90;;;;;;2229377;62;20620;-66
2022/09/25 03:30:39;0.00;0.00;0.62;0.00;0.00;0.62;2.63;2.30;;;26.20;29.50;;;;;;2230035;62;20570;-65
2022/09/25 03:33:26;0.00;0.00;0.62;0.00;0.00;0.62;2.70;2.33;;;26.20;28.90;;;;;;2230506;62;20400;-66
2022/09/25 03:36:12;0.00;0.00;0.62;0.00;0.00;0.62;2.53;2.33;;;26.20;29.00;;;;;;2233360;62;20392;-65
2022/09/25 03:38:58;0.00;0.00;0.62;0.00;0.00;0.62;2.80;2.50;;;26.20;29.00;;;;;;2233791;62;20380;-64
2022/09/25 03:41:43;0.00;0.00;0.62;0.00;0.00;0.62;2.73;2.43;;;26.20;29.00;;;;;;2233254;62;20357;-66
2022/09/25 03:44:28;0.00;0.00;0.62;0.00;0.00;0.62;3.30;2.37;;;26.20;29.00;;;;;;2233539;62;20441;-65
2022/09/25 03:47:14;0.00;0.00;0.62;0.00;0.00;0.62;2.80;2.33;;;26.10;28.90;;;;;;2233795;62;20392;-65
2022/09/25 03:49:59;0.00;0.00;0.62;0.00;0.00;0.62;3.33;2.47;;;26.10;28.90;;;;;;2233458;62;20485;-66
2022/09/25 03:52:43;0.00;0.00;0.62;0.00;0.00;0.62;2.90;2.60;;;26.10;28.90;;;;;;2233824;62;20397;-66
2022/09/25 03:55:28;0.00;0.00;0.62;0.00;0.00;0.62;3.40;2.50;;;26.10;29.00;;;;;;2233392;62;20352;-66
2022/09/25 03:58:13;0.00;0.00;0.62;0.00;0.00;0.62;4.20;2.37;;;26.10;29.00;;;;;;2232914;62;20441;-66
2022/09/25 04:00:59;0.00;0.00;0.62;0.00;0.00;0.62;2.60;2.10;;;26.10;29.00;;;;;;2233747;62;20377;-67
2022/09/25 04:03:46;0.00;0.00;0.62;0.00;0.00;0.62;2.80;1.90;;;26.10;29.60;;;;;;2233378;62;20405;-66
2022/09/25 04:06:31;0.00;0.00;0.62;0.00;0.00;0.62;2.50;2.30;;;26.10;29.10;;;;;;2233843;62;20708;-66
2022/09/25 04:09:15;0.00;0.00;0.62;0.00;0.00;0.62;2.43;2.23;;;26.10;29.10;;;;;;2234575;62;20428;-66
2022/09/25 04:12:01;0.00;0.00;0.62;0.00;0.00;0.62;2.67;2.10;;;26.10;29.10;;;;;;2236167;62;20365;-66
2022/09/25 04:14:46;0.00;0.00;0.62;0.00;0.00;0.62;3.47;2.43;;;26.10;29.00;;;;;;2234061;62;20474;-66
2022/09/25 04:17:31;0.00;0.00;0.62;0.00;0.00;0.62;4.70;1.90;;;26.10;29.00;;;;;;2234026;62;20433;-65
2022/09/25 04:20:18;0.00;0.00;0.62;0.00;0.00;0.62;3.77;2.57;;;26.10;29.00;;;;;;2233909;62;20735;-66
2022/09/25 04:23:03;0.00;0.00;0.62;0.00;0.00;0.62;2.50;2.30;;;26.10;29.10;;;;;;2234495;62;20412;-65
2022/09/25 04:25:48;0.00;0.00;0.62;0.00;0.00;0.62;2.87;2.10;;;26.10;29.00;;;;;;2233765;62;20789;-63
2022/09/25 04:28:33;0.00;0.00;0.62;0.00;0.00;0.62;2.10;1.80;;;26.10;29.00;;;;;;2233932;62;20428;-65
2022/09/25 04:31:18;0.00;0.00;0.62;0.00;0.00;0.62;3.20;2.63;;;26.10;29.10;;;;;;2234463;62;20364;-66
2022/09/25 04:34:03;0.00;0.00;0.62;0.00;0.00;0.62;2.73;2.27;;;26.10;29.10;;;;;;2231484;62;20418;-65
2022/09/25 04:36:49;0.00;0.00;0.62;0.00;0.00;0.62;3.17;2.50;;;26.10;29.60;;;;;;2229996;62;20350;-66
2022/09/25 04:39:34;0.00;0.00;0.62;0.00;0.00;0.62;2.87;2.47;;;26.10;29.10;;;;;;2230230;62;20401;-66
2022/09/25 04:42:22;0.00;0.00;0.62;0.00;0.00;0.62;3.13;2.30;;;26.10;29.10;;;;;;2229782;62;20365;-65
2022/09/25 04:45:08;0.00;0.00;0.62;0.00;0.00;0.62;3.37;2.10;;;26.10;29.10;;;;;;2230130;62;20422;-65
2022/09/25 04:47:53;0.00;0.00;0.62;0.00;0.00;0.62;2.77;2.00;;;26.10;29.00;;;;;;2229625;62;20465;-65
2022/09/25 04:50:38;0.00;0.00;0.62;0.00;0.00;0.62;2.07;1.87;;;26.00;29.00;;;;;;2229974;62;20369;-66
2022/09/25 04:53:26;0.00;0.00;0.62;0.00;0.00;0.62;2.77;2.10;;;26.00;29.10;;;;;;2230372;62;20361;-66
2022/09/25 04:56:10;0.00;0.00;0.62;0.00;0.00;0.62;2.57;2.20;;;26.00;29.00;;;;;;2229745;62;20373;-66
2022/09/25 04:58:55;0.00;0.00;0.62;0.00;0.00;0.62;2.50;1.83;;;26.00;29.10;;;;;;2229986;62;20640;-65
2022/09/25 05:01:40;0.00;0.00;0.62;0.00;0.00;0.62;4.67;2.37;;;26.00;29.00;;;;;;2230259;62;20393;-66
2022/09/25 05:04:25;0.00;0.00;0.62;0.00;0.00;0.62;2.97;2.00;;;26.00;29.00;;;;;;2229858;62;20365;-65
2022/09/25 05:07:10;0.00;0.00;0.62;0.00;0.00;0.62;2.93;2.13;;;26.00;29.00;;;;;;2230060;62;20385;-65
2022/09/25 05:09:56;0.00;0.00;0.62;0.00;0.00;0.62;4.10;1.93;;;26.00;29.00;;;;;;2229920;62;20434;-66
2022/09/25 05:12:41;0.00;0.00;0.62;0.00;0.00;0.62;1.83;1.60;;;26.00;29.00;;;;;;2229862;62;20366;-65
2022/09/25 05:15:27;0.00;0.00;0.62;0.00;0.00;0.62;2.13;1.77;;;26.00;29.00;;;;;;2230130;62;20357;-65
2022/09/25 05:18:16;0.00;0.00;0.62;0.00;0.00;0.62;2.17;1.80;;;26.00;29.10;;;;;;2229584;62;20400;-66
2022/09/25 05:21:03;0.00;0.00;0.62;0.00;0.00;0.62;2.93;2.03;;;26.00;29.10;;;;;;2229928;62;20589;-65
2022/09/25 05:23:49;0.00;0.00;0.62;0.00;0.00;0.62;3.43;1.67;;;26.00;29.10;;;;;;2230303;62;20370;-64
2022/09/25 05:26:36;0.00;0.00;0.62;0.00;0.00;0.62;2.40;1.80;;;26.00;29.10;;;;;;2229555;62;20429;-64
2022/09/25 05:29:21;0.00;0.00;0.62;0.00;0.00;0.62;2.60;2.00;;;26.00;29.10;;;;;;2230192;62;20392;-66
2022/09/25 05:32:06;0.00;0.00;0.62;0.00;0.00;0.62;2.90;1.70;;;26.00;29.20;;;;;;2229668;62;20392;-65
2022/09/25 05:34:51;0.00;0.00;0.62;0.00;0.00;0.62;2.87;1.70;;;26.00;29.10;;;;;;2233388;62;20397;-66
2022/09/25 05:37:35;0.00;0.00;0.62;0.00;0.00;0.62;2.10;1.63;;;26.00;29.20;;;;;;2234075;62;20413;-66
2022/09/25 05:40:22;0.00;0.00;0.62;0.00;0.00;0.62;1.83;1.63;;;25.90;29.10;;;;;;2233590;62;20360;-65
2022/09/25 05:43:08;0.00;0.00;0.62;0.00;0.00;0.62;2.70;1.67;;;25.90;29.10;;;;;;2233655;62;20359;-66
2022/09/25 05:45:54;0.00;0.00;0.62;0.00;0.00;0.62;2.30;1.70;;;25.90;29.10;;;;;;2234343;62;20393;-65
2022/09/25 05:48:39;0.00;0.00;0.62;0.00;0.00;0.62;4.37;2.13;;;25.90;29.10;;;;;;2233555;62;20602;-65
2022/09/25 05:51:23;0.00;0.00;0.62;0.00;0.00;0.62;2.63;1.90;;;25.90;29.10;;;;;;2234213;62;20748;-65
2022/09/25 05:54:08;0.00;0.00;0.62;0.00;0.00;0.62;2.40;1.90;;;25.90;29.10;;;;;;2233621;62;20840;-65
2022/09/25 05:56:53;0.00;0.00;0.62;0.00;0.00;0.62;3.30;1.70;;;25.90;29.10;;;;;;2233716;62;20356;-65
2022/09/25 05:59:39;0.00;0.00;0.62;0.00;0.00;0.62;2.47;1.97;;;25.90;29.10;;;;;;2234127;62;20416;-65
2022/09/25 06:02:24;0.00;0.00;0.62;0.00;0.00;0.62;2.63;1.80;;;25.90;29.10;;;;;;2233071;62;20440;-65
2022/09/25 06:05:09;0.00;0.00;0.62;0.00;0.00;0.62;2.80;1.60;;;25.90;29.20;;;;;;2233564;62;20441;-65
2022/09/25 06:07:55;0.00;0.00;0.62;0.00;0.00;0.62;2.53;1.70;;;25.90;29.20;;;;;;2236361;62;20769;-65
2022/09/25 06:10:40;0.00;0.00;0.62;0.00;0.00;0.62;3.63;2.00;;;25.90;29.20;;;;;;2233545;62;20591;-65
2022/09/25 06:13:25;0.00;0.00;0.62;0.00;0.00;0.62;2.40;1.73;;;25.90;29.20;;;;;;2234059;62;20371;-65
2022/09/25 06:16:18;0.00;0.00;0.62;0.00;0.00;0.62;2.30;2.07;;;25.80;29.10;;;;;;2234486;62;20403;-67
2022/09/25 06:19:03;0.00;0.00;0.62;0.00;0.00;0.62;2.33;1.87;;;25.80;29.10;;;;;;2235991;62;20406;-66
2022/09/25 06:21:47;0.00;0.00;0.62;0.00;0.00;0.62;2.77;1.70;;;25.80;29.10;;;;;;2237881;62;20411;-65
2022/09/25 06:24:32;0.00;0.00;0.62;0.00;0.00;0.62;2.47;1.90;;;25.90;29.20;;;;;;2237268;62;20680;-65
2022/09/25 06:27:16;0.00;0.00;0.62;0.00;0.00;0.62;2.97;1.70;;;25.90;29.20;;;;;;2235283;62;20396;-66
2022/09/25 06:30:01;0.00;0.00;0.62;0.00;0.00;0.62;1.90;1.40;;;25.80;29.20;;;;;;2233793;62;20400;-65
2022/09/25 06:32:48;0.00;0.00;0.62;0.00;0.00;0.62;3.67;2.27;;;25.80;29.10;;;;;;2233365;62;20391;-65
2022/09/25 06:35:35;0.00;0.00;0.62;0.00;0.00;0.62;2.73;1.83;;;25.80;29.10;;;;;;2233896;62;20729;-65
2022/09/25 06:38:20;0.00;0.00;0.62;0.00;0.00;0.62;4.33;1.80;;;25.80;29.10;;;;;;2233303;62;20835;-65
2022/09/25 06:41:05;0.00;0.00;0.62;0.00;0.00;0.62;2.40;1.43;;;25.80;29.20;;;;;;2232902;62;20409;-66
2022/09/25 06:43:50;0.00;0.00;0.62;0.00;0.00;0.62;2.53;1.63;;;25.80;29.20;;;;;;2233844;62;20364;-66
2022/09/25 06:46:35;0.00;0.00;0.62;0.00;0.00;0.62;4.07;2.00;;;25.80;29.20;;;;;;2233191;62;20602;-66
2022/09/25 06:49:21;0.00;0.00;0.62;0.00;0.00;0.62;2.53;1.73;;;25.80;29.20;;;;;;2233303;62;20427;-66
2022/09/25 06:52:07;0.00;0.00;0.62;0.00;0.00;0.62;1.90;1.40;;;25.80;29.20;;;;;;2233842;62;20523;-66
2022/09/25 06:54:51;0.00;0.00;0.62;0.00;0.00;0.62;3.43;1.70;;;25.80;29.20;;;;;;2233010;62;20360;-66
2022/09/25 06:57:37;0.00;0.00;0.62;0.00;0.00;0.62;2.07;1.63;;;25.80;29.20;;;;;;2234988;62;20370;-65
2022/09/25 07:00:21;0.00;0.00;0.62;0.00;0.00;0.62;2.83;1.73;;;25.80;29.20;;;;;;2237469;62;20358;-65
2022/09/25 07:06:14;0.00;0.00;0.62;0.00;0.00;0.62;3.63;1.80;;;25.80;29.20;;;;;;2237672;62;20435;-65
2022/09/25 07:08:58;0.00;0.00;0.62;0.00;0.00;0.62;3.80;1.80;;;25.70;29.20;;;;;;2577155;46;20395;-64
2022/09/25 07:11:45;0.00;0.00;0.62;0.00;0.00;0.62;3.80;2.10;;;25.70;29.70;;;;;;2237020;62;20403;-65
2022/09/25 07:14:32;0.00;0.00;0.62;0.00;0.00;0.62;2.80;1.60;;;25.70;29.20;;;;;;2237745;62;20370;-63
2022/09/25 07:17:17;0.00;0.00;0.62;0.00;0.00;0.62;2.33;1.80;;;25.70;29.20;;;;;;2237145;62;20439;-63
2022/09/25 07:20:02;0.00;0.00;0.62;0.00;0.00;0.62;3.50;2.07;;;25.70;29.20;;;;;;2237471;62;20379;-65
2022/09/25 07:22:48;0.00;0.00;0.62;0.00;0.00;0.62;2.80;1.93;;;25.70;29.20;;;;;;2237252;62;20359;-64
2022/09/25 07:25:33;0.00;0.00;0.62;0.00;0.00;0.62;2.77;1.63;;;25.70;29.30;;;;;;2237074;62;20376;-65
2022/09/25 07:28:18;0.00;0.00;0.62;0.00;0.00;0.62;4.63;1.80;;;25.70;29.40;;;;;;2237694;62;20379;-65
2022/09/25 07:31:15;0.00;0.00;0.62;0.00;0.00;0.62;4.93;2.20;;;25.70;29.40;;;;;;2237033;62;20431;-68
2022/09/25 07:34:07;0.00;0.00;0.62;0.00;0.00;0.62;3.37;2.47;;;25.70;29.40;;;;;;2234974;62;20789;-64
2022/09/25 07:36:53;0.00;0.00;0.62;0.00;0.00;0.62;3.60;1.90;;;25.70;29.40;;;;;;2233614;62;20367;-65
2022/09/25 07:39:39;0.00;0.00;0.62;0.00;0.00;0.62;3.40;1.90;;;25.70;29.40;;;;;;2233596;62;20380;-65
2022/09/25 07:42:24;0.00;0.00;0.62;0.00;0.00;0.62;3.20;2.00;;;25.70;29.50;;;;;;2234297;62;20501;-65
2022/09/25 07:45:10;0.00;0.00;0.62;0.00;0.00;0.62;3.53;2.33;;;25.70;29.50;;;;;;2234109;62;20404;-63
2022/09/25 07:47:56;0.00;0.00;0.62;0.00;0.00;0.62;3.70;2.50;;;25.70;29.50;;;;;;2234108;62;20772;-64
2022/09/25 07:50:40;0.00;0.00;0.62;0.00;0.00;0.62;2.53;1.97;;;25.70;29.50;;;;;;2234364;62;20479;-66
2022/09/25 07:53:25;0.00;0.00;0.62;0.00;0.00;0.62;4.07;2.70;;;25.70;29.50;;;;;;2233887;62;20372;-63
2022/09/25 07:56:12;0.00;0.00;0.62;0.00;0.00;0.62;4.20;2.87;;;25.70;29.50;;;;;;2234091;62;20429;-63
2022/09/25 07:58:56;0.00;0.00;0.62;0.00;0.00;0.62;6.57;3.70;;;25.70;29.50;;;;;;2234435;62;20514;-62
2022/09/25 08:01:41;0.00;0.00;0.62;0.00;0.00;0.62;4.03;3.20;;;25.70;30.00;;;;;;2236144;62;20400;-66
2022/09/25 08:04:25;0.00;0.00;0.62;0.00;0.00;0.62;3.40;2.90;;;25.60;30.00;;;;;;2234387;62;20387;-68
2022/09/25 08:07:11;0.00;0.00;0.62;0.00;0.00;0.62;5.30;3.63;;;25.60;29.50;;;;;;2233990;62;20392;-66
2022/09/25 08:09:56;0.00;0.00;0.62;0.00;0.00;0.62;4.00;2.80;;;25.50;29.50;;;;;;2233704;62;20372;-68
2022/09/25 08:12:42;0.00;0.00;0.62;0.00;0.00;0.62;5.80;2.70;;;25.50;29.50;;;;;;2234317;62;20359;-63
2022/09/25 08:15:26;0.00;0.00;0.62;0.00;0.00;0.62;3.70;3.00;;;25.50;29.50;;;;;;2233712;62;20376;-64
2022/09/25 08:18:11;0.00;0.00;0.62;0.00;0.00;0.62;6.20;3.20;;;25.50;29.50;;;;;;2233908;62;20469;-63
2022/09/25 08:21:01;0.00;0.00;0.62;0.00;0.00;0.62;3.63;3.00;;;25.50;29.50;;;;;;2234267;62;20368;-65
2022/09/25 08:23:50;0.00;0.00;0.62;0.00;0.00;0.62;2.50;2.20;;;25.50;29.50;;;;;;2233794;62;20364;-64
2022/09/25 08:26:36;0.00;0.00;0.62;0.00;0.00;0.62;2.73;2.40;;;25.50;29.60;;;;;;2234424;62;20437;-63
2022/09/25 08:29:23;0.00;0.00;0.62;0.00;0.00;0.62;2.87;2.33;;;25.50;29.60;;;;;;2233868;62;20380;-64
2022/09/25 08:32:11;0.00;0.00;0.62;0.00;0.00;0.62;3.57;2.80;;;25.50;29.60;;;;;;2233686;62;20369;-64
2022/09/25 08:34:55;0.00;0.00;0.62;0.00;0.00;0.62;3.07;2.50;;;25.50;29.60;;;;;;2230628;62;20373;-63
2022/09/25 08:37:41;0.00;0.00;0.62;0.00;0.00;0.62;2.50;2.23;;;25.50;29.60;;;;;;2229527;62;20798;-62
2022/09/25 08:40:29;0.00;0.00;0.62;0.00;0.00;0.62;2.83;2.33;;;25.50;29.60;;;;;;2229375;62;20362;-63
2022/09/25 08:43:21;0.00;0.00;0.62;0.00;0.00;0.62;3.00;2.13;;;25.60;29.60;;;;;;2230430;62;20373;-63
2022/09/25 08:49:34;0.00;0.00;0.62;0.00;0.00;0.62;4.07;2.43;;;25.60;29.60;;;;;;2230373;62;20385;-63
2022/09/25 08:52:20;0.00;0.00;0.62;0.00;0.00;0.62;2.37;1.93;;;25.60;29.60;;;;;;2229630;62;20614;-64
2022/09/25 08:55:12;0.00;0.00;0.62;0.00;0.00;0.62;3.63;2.20;;;25.70;29.70;;;;;;2229875;62;20573;-64
2022/09/25 08:57:58;0.00;0.00;0.62;0.00;0.00;0.62;2.30;2.07;;;25.70;29.70;;;;;;2230229;62;20465;-64
2022/09/25 09:00:44;0.00;0.00;0.62;0.00;0.00;0.62;2.37;2.17;;;25.70;29.70;;;;;;2229639;62;20373;-62
2022/09/25 09:03:32;0.00;0.00;0.62;0.00;0.00;0.62;2.37;1.87;;;25.70;29.70;;;;;;2230206;62;20399;-66
2022/09/25 09:06:17;0.00;0.00;0.62;0.00;0.00;0.62;3.27;2.60;;;25.70;29.70;;;;;;2229991;62;20386;-66
2022/09/25 09:09:07;0.00;0.00;0.62;0.00;0.00;0.62;2.60;2.13;;;25.70;29.60;;;;;;2229448;62;20426;-63
2022/09/25 09:12:01;0.00;0.00;0.62;0.00;0.00;0.62;2.33;2.00;;;25.80;29.60;;;;;;2230312;62;20365;-63
2022/09/25 09:14:49;0.00;0.00;0.62;0.00;0.00;0.62;2.47;2.10;;;25.80;29.60;;;;;;2229602;62;20362;-63
2022/09/25 09:17:41;0.00;0.00;0.62;0.00;0.00;0.62;3.23;2.37;;;25.80;29.60;;;;;;2229672;62;20492;-64
2022/09/25 09:20:36;0.00;0.00;0.62;0.00;0.00;0.62;3.20;2.57;;;25.80;29.60;;;;;;2230374;62;20362;-64
2022/09/25 09:23:31;0.00;0.00;0.62;0.00;0.00;0.62;2.70;2.27;;;25.80;29.60;;;;;;2229463;62;20463;-64
2022/09/25 09:26:24;0.00;0.00;0.62;0.00;0.00;0.62;3.80;3.40;;;25.80;29.60;;;;;;2230080;62;20429;-63
2022/09/25 09:29:42;0.00;0.00;0.62;0.00;0.00;0.62;3.93;2.93;;;25.80;29.60;;;;;;2229665;62;20430;-63
2022/09/25 09:32:55;0.00;0.00;0.62;0.00;0.00;0.62;3.90;3.50;;;25.90;29.60;;;;;;2229928;62;20393;-65
2022/09/25 09:35:52;0.00;0.00;0.62;0.00;0.00;0.62;4.73;3.60;;;25.90;29.60;;;;;;2233906;62;20372;-65
2022/09/25 09:38:48;0.00;0.00;0.62;0.00;0.00;0.62;4.43;3.50;;;25.90;29.60;;;;;;2234652;62;20387;-68
2022/09/25 09:41:49;0.00;0.00;0.62;0.00;0.00;0.62;3.80;2.90;;;25.90;29.60;;;;;;2238039;62;20371;-65
2022/09/25 09:44:50;0.00;0.00;0.62;0.00;0.00;0.62;4.30;2.63;;;25.90;29.60;;;;;;2237367;62;20361;-64
2022/09/25 09:47:45;0.00;0.00;0.62;0.00;0.00;0.62;3.17;2.87;;;26.00;30.10;;;;;;2237539;62;20472;-65
2022/09/25 09:50:41;0.00;0.00;0.62;0.00;0.00;0.62;3.40;2.70;;;26.00;29.60;;;;;;2237673;62;20371;-63
2022/09/25 09:53:38;0.00;0.00;0.62;0.00;0.00;0.62;4.00;3.33;;;26.00;29.60;;;;;;2237306;62;20368;-65
2022/09/25 09:56:27;0.00;0.00;0.62;0.00;0.00;0.62;3.60;2.93;;;26.00;29.60;;;;;;2237680;62;20415;-64
2022/09/25 09:59:17;0.00;0.00;0.62;0.00;0.00;0.62;4.00;3.10;;;26.00;29.60;;;;;;2237413;62;20434;-66
2022/09/25 10:02:15;0.00;0.00;0.62;0.00;0.00;0.62;3.90;3.53;;;26.10;29.60;;;;;;2237081;62;20378;-62
2022/09/25 10:05:06;0.00;0.00;0.62;0.00;0.00;0.62;3.97;3.40;;;26.10;29.60;;;;;;2238081;62;20748;-62
2022/09/25 10:07:52;0.00;0.00;0.62;0.00;0.00;0.62;4.03;3.50;;;26.10;29.60;;;;;;2237092;62;20484;-64
2022/09/25 10:10:41;0.00;0.00;0.62;0.00;0.00;0.62;4.27;3.50;;;26.10;29.50;;;;;;2238106;62;20363;-63
2022/09/25 10:13:31;0.00;0.00;0.62;0.00;0.00;0.62;4.50;4.00;;;26.10;29.50;;;;;;2237382;62;20368;-64
2022/09/25 10:16:20;0.00;0.00;0.62;0.00;0.00;0.62;5.77;4.27;;;26.20;29.50;;;;;;2237524;62;20592;-62
2022/09/25 10:19:12;0.00;0.00;0.62;0.00;0.00;0.62;5.13;4.60;;;26.20;29.50;;;;;;2238052;62;20391;-64
2022/09/25 10:22:04;0.00;0.00;0.62;0.00;0.00;0.62;5.77;4.47;;;26.20;29.50;;;;;;2237114;62;20377;-63
2022/09/25 10:24:52;0.00;0.00;0.62;0.00;0.00;0.62;4.77;4.03;;;26.20;29.40;;;;;;2237726;62;20541;-63
2022/09/25 10:27:40;0.00;0.00;0.62;0.00;0.00;0.62;6.70;4.73;;;26.20;29.40;;;;;;2237352;62;20511;-63
2022/09/25 10:30:25;0.00;0.00;0.62;0.00;0.00;0.62;4.90;4.10;;;26.20;29.40;;;;;;2237294;62;20383;-63
2022/09/25 10:33:17;0.00;0.00;0.62;0.00;0.00;0.62;5.07;4.40;;;26.20;29.40;;;;;;2237958;62;20492;-63
2022/09/25 10:36:02;0.00;0.00;0.62;0.00;0.00;0.62;5.33;4.57;;;26.20;29.30;;;;;;2237220;62;20772;-63
2022/09/25 10:38:48;0.00;0.00;0.62;0.00;0.00;0.62;4.37;3.97;;;26.20;29.30;;;;;;2237561;62;20391;-64
2022/09/25 10:41:42;0.00;0.00;0.62;0.00;0.00;0.62;4.87;4.30;;;26.20;29.30;;;;;;2237775;62;20376;-64
2022/09/25 10:44:34;0.00;0.00;0.62;0.00;0.00;0.62;5.03;4.53;;;26.20;29.30;;;;;;2237395;62;20395;-64
2022/09/25 10:50:35;0.00;0.00;0.62;0.00;0.00;0.62;4.93;3.60;;;26.30;29.30;;;;;;2237218;62;20364;-62
2022/09/25 10:53:28;0.00;0.00;0.62;0.00;0.00;0.62;4.10;3.70;;;26.30;29.30;;;;;;2237529;62;20635;-64
2022/09/25 10:56:19;0.00;0.00;0.62;0.00;0.00;0.62;4.70;3.83;;;26.30;29.30;;;;;;2237917;62;20577;-64
2022/09/25 10:59:16;0.00;0.00;0.62;0.00;0.00;0.62;3.60;3.30;;;26.30;29.30;;;;;;2237301;62;20415;-64
2022/09/25 11:02:13;0.00;0.00;0.62;0.00;0.00;0.62;3.50;2.97;;;26.30;29.30;;;;;;2237773;62;20649;-64
2022/09/25 11:04:58;0.00;0.00;0.62;0.00;0.00;0.62;4.10;3.70;;;26.30;29.20;;;;;;2237629;62;20484;-63
2022/09/25 11:07:51;0.00;0.00;0.62;0.00;0.00;0.62;3.87;3.47;;;26.30;29.20;;;;;;2237088;62;20607;-63
2022/09/25 11:10:47;0.00;0.00;0.62;0.00;0.00;0.62;4.80;3.90;;;26.30;29.20;;;;;;2237904;62;20622;-64
2022/09/25 11:13:39;0.00;0.00;0.62;0.00;0.00;0.62;4.27;3.50;;;26.30;29.20;;;;;;2237179;62;20482;-64
2022/09/25 11:16:45;0.00;0.00;0.62;0.00;0.00;0.62;4.23;3.83;;;26.30;29.20;;;;;;2238112;62;20404;-64
2022/09/25 11:19:34;0.00;0.00;0.62;0.00;0.00;0.62;3.80;3.37;;;26.30;29.20;;;;;;2238174;62;20649;-63